Time;durP1;ratioP1;P1;durP2;ratioP2;P2;SDS_P1;SDS_P2;PMS_P1;PMS_P2;Temp;Humidity;BMP_temperature;BMP_pressure;BME280_temperature;BME280_humidity;BME280_pressure;Samples;Min_cycle;Max_cycle;Signal;HPM_P1;HPM_P2
2022/02/28 00:01:23;;;;;;;47.90;23.97;;;;;;;-3.82;75.97;100537.12;2135334;83;20956;-83
2022/02/28 00:04:25;;;;;;;52.67;25.47;;;;;;;-3.85;75.86;100540.66;2133798;83;20984;-83
2022/02/28 00:07:26;;;;;;;49.43;25.10;;;;;;;-3.90;75.85;100530.02;2135338;83;21477;-84
2022/02/28 00:10:28;;;;;;;48.47;24.80;;;;;;;-3.91;75.94;100538.42;2135607;83;20972;-83
2022/02/28 00:13:28;;;;;;;58.47;27.90;;;;;;;-3.92;76.27;100531.53;2135646;83;20955;-81
2022/02/28 00:16:29;;;;;;;62.17;29.50;;;;;;;-3.91;76.65;100533.70;2135291;83;21061;-81
2022/02/28 00:19:29;;;;;;;55.50;28.57;;;;;;;-3.90;76.76;100532.95;2135511;83;21305;-84
2022/02/28 00:22:33;;;;;;;51.50;25.33;;;;;;;-3.89;77.02;100532.19;2135403;83;20948;-84
2022/02/28 00:25:36;;;;;;;51.80;25.13;;;;;;;-3.86;77.48;100529.55;2088912;83;20996;-85
2022/02/28 00:31:58;;;;;;;49.07;24.07;;;;;;;-3.91;77.21;100523.12;2112818;83;21003;-84
2022/02/28 00:34:58;;;;;;;47.33;22.93;;;;;;;-3.97;76.68;100523.81;2135608;83;21016;-84
2022/02/28 00:47:52;;;;;;;44.03;22.87;;;;;;;-3.08;77.12;100512.61;2137665;82;21000;-84
2022/02/28 00:54:23;;;;;;;42.87;23.40;;;;;;;-3.52;76.40;100513.58;2140031;81;21005;-83
2022/02/28 00:57:23;;;;;;;51.60;23.63;;;;;;;-3.64;76.11;100518.81;2138556;83;20977;-82
2022/02/28 01:00:24;;;;;;;44.60;22.73;;;;;;;-3.75;76.02;100510.16;2138551;83;20933;-83
2022/02/28 01:03:24;;;;;;;40.00;21.47;;;;;;;-3.79;76.16;100513.17;2138754;83;20961;-85
2022/02/28 01:06:25;;;;;;;39.77;20.97;;;;;;;-3.81;75.86;100511.23;2139170;83;21384;-84
2022/02/28 01:09:26;;;;;;;42.27;20.93;;;;;;;-3.90;75.42;100507.44;2138123;83;21016;-84
2022/02/28 01:18:34;;;;;;;73.43;23.10;;;;;;;-4.17;75.17;100504.44;2115518;83;21020;-85
2022/02/28 01:21:46;;;;;;;124.20;26.70;;;;;;;-4.26;74.53;100499.36;2132487;83;21019;-84
2022/02/28 01:24:49;;;;;;;93.17;24.47;;;;;;;-4.36;74.42;100503.39;2139264;83;21028;-85
2022/02/28 01:27:50;;;;;;;52.07;21.37;;;;;;;-4.44;74.81;100497.94;2139474;83;21067;-85
2022/02/28 01:34:04;;;;;;;63.40;21.03;;;;;;;-4.47;75.60;100495.09;2157659;82;21069;-85
2022/02/28 01:37:05;;;;;;;44.93;20.83;;;;;;;-4.41;76.25;100490.58;2164776;82;21272;-84
2022/02/28 01:40:07;;;;;;;47.43;20.87;;;;;;;-4.36;76.55;100490.65;2258654;78;21359;-84
2022/02/28 01:43:08;;;;;;;44.93;18.70;;;;;;;-4.34;77.30;100494.25;2292007;78;20985;-85
2022/02/28 01:46:08;;;;;;;38.87;19.43;;;;;;;-4.31;77.06;100489.09;2291696;78;20906;-84
2022/02/28 01:49:09;;;;;;;44.13;19.23;;;;;;;-4.33;77.28;100482.05;2290428;78;21328;-82
2022/02/28 01:52:09;;;;;;;54.10;20.20;;;;;;;-4.35;77.00;100486.97;2291743;78;21344;-83
2022/02/28 01:55:10;;;;;;;48.50;18.80;;;;;;;-4.35;77.89;100483.52;2291893;78;20957;-84
2022/02/28 01:58:10;;;;;;;32.63;17.53;;;;;;;-4.31;77.95;100486.55;2291923;78;20977;-84
2022/02/28 02:01:11;;;;;;;32.10;17.77;;;;;;;-4.33;77.69;100484.60;2292062;78;20950;-84
2022/02/28 02:04:11;;;;;;;38.60;17.90;;;;;;;-4.35;77.25;100486.97;2291493;78;20934;-84
2022/02/28 02:07:12;;;;;;;56.93;19.47;;;;;;;-4.38;77.42;100482.85;2291990;78;21266;-84
2022/02/28 02:10:13;;;;;;;80.43;21.40;;;;;;;-4.34;78.05;100483.67;2291655;78;20906;-83
2022/02/28 02:13:13;;;;;;;37.60;18.13;;;;;;;-4.31;78.10;100489.09;2291148;78;20942;-85
2022/02/28 02:16:16;;;;;;;38.40;17.13;;;;;;;-4.31;77.97;100486.55;2290644;78;21036;-84
2022/02/28 02:19:16;;;;;;;37.07;18.27;;;;;;;-4.31;78.18;100489.47;2291548;78;20942;-83
2022/02/28 02:22:21;;;;;;;40.63;20.87;;;;;;;-4.29;78.55;100482.50;2291249;78;20969;-84
2022/02/28 02:25:22;;;;;;;;;;;;;;;-4.28;78.85;100481.74;2293889;78;20985;-84
2022/02/28 02:28:22;;;;;;;35.47;16.43;;;;;;;-4.24;78.68;100487.66;2291462;78;20113;-84
2022/02/28 02:31:23;;;;;;;41.23;17.87;;;;;;;-4.25;78.41;100483.69;2291822;78;21347;-83
2022/02/28 02:34:23;;;;;;;31.53;16.30;;;;;;;-4.26;78.40;100485.71;2274432;77;20968;-84
2022/02/28 02:37:24;;;;;;;33.47;16.83;;;;;;;-4.24;78.67;100484.20;2249363;79;20912;-84
2022/02/28 02:40:25;;;;;;;35.97;17.93;;;;;;;-4.24;78.30;100489.31;2249365;78;20969;-84
2022/02/28 02:46:36;;;;;;;38.07;17.77;;;;;;;-4.24;79.04;100487.66;2221948;79;20976;-83
2022/02/28 02:49:36;;;;;;;40.80;19.67;;;;;;;-4.21;78.83;100495.98;2249174;79;20912;-84
2022/02/28 02:52:37;;;;;;;39.30;19.63;;;;;;;-4.22;79.14;100489.98;2249220;79;21307;-83
2022/02/28 02:55:37;;;;;;;35.03;18.40;;;;;;;-4.25;79.42;100493.88;2249153;79;21344;-84
2022/02/28 02:58:38;;;;;;;45.27;22.00;;;;;;;-4.30;79.31;100489.62;2249629;78;20987;-85
2022/02/28 03:01:42;;;;;;;48.50;21.23;;;;;;;-2.93;92.79;100484.61;2249245;79;20996;-84
2022/02/28 03:04:42;;;;;;;38.03;19.40;;;;;;;-3.09;80.70;100480.16;2249634;79;20968;-84
2022/02/28 03:07:44;;;;;;;41.53;20.23;;;;;;;-3.48;79.13;100488.86;2249219;79;20900;-85
2022/02/28 03:10:45;;;;;;;40.40;19.63;;;;;;;-3.67;78.86;100493.91;2248987;79;21423;-83
2022/02/28 03:13:45;;;;;;;40.93;17.57;;;;;;;-3.80;78.73;100488.41;2249112;79;20967;-83
2022/02/28 03:16:46;;;;;;;44.40;18.07;;;;;;;-3.91;78.54;100489.95;2247890;78;20920;-84
2022/02/28 03:19:47;;;;;;;39.73;17.73;;;;;;;-3.98;78.45;100495.61;2249325;79;20877;-85
2022/02/28 03:22:47;;;;;;;37.17;17.73;;;;;;;-4.04;78.53;100492.48;2249768;79;21335;-84
2022/02/28 03:25:48;;;;;;;36.17;16.97;;;;;;;-4.08;78.61;100491.66;2250117;79;20881;-84
2022/02/28 03:28:48;;;;;;;61.10;18.63;;;;;;;-4.13;78.36;100489.95;2249073;78;21007;-84
2022/02/28 03:31:49;;;;;;;39.20;17.93;;;;;;;-4.15;78.61;100490.56;2249642;79;20931;-84
2022/02/28 03:34:49;;;;;;;38.17;17.53;;;;;;;-4.17;78.70;100497.69;2264102;77;20970;-84
2022/02/28 03:37:50;;;;;;;45.43;17.03;;;;;;;-4.18;78.65;100492.44;2281883;78;20954;-80
2022/02/28 03:40:51;;;;;;;51.80;19.13;;;;;;;-4.21;78.55;100495.59;2281692;78;20930;-84
2022/02/28 03:43:52;;;;;;;39.77;17.50;;;;;;;-4.22;78.89;100497.63;2281469;78;20962;-84
2022/02/28 03:46:53;;;;;;;35.77;16.80;;;;;;;-4.23;78.88;100494.93;2281669;78;20922;-84
2022/02/28 03:49:54;;;;;;;32.17;15.80;;;;;;;-4.24;78.92;100498.23;2281915;78;21353;-84
2022/02/28 03:56:00;;;;;;;44.60;19.62;;;;;;;-4.29;79.22;100498.17;2250686;79;20979;-84
2022/02/28 03:59:02;;;;;;;42.30;16.40;;;;;;;-4.29;79.11;100492.70;2276402;78;21065;-84
2022/02/28 04:02:04;;;;;;;40.83;16.57;;;;;;;-4.29;79.28;100494.34;2281582;78;20986;-84
2022/02/28 04:05:05;;;;;;;31.27;15.27;;;;;;;-4.29;79.14;100496.89;2281642;78;21428;-84
2022/02/28 04:08:06;;;;;;;33.33;16.17;;;;;;;-4.31;78.91;100498.40;2282057;78;20950;-85
2022/02/28 04:11:06;;;;;;;40.47;15.30;;;;;;;-4.33;79.36;100498.25;2282069;78;20996;-83
2022/02/28 04:14:07;;;;;;;32.00;15.60;;;;;;;-4.36;79.28;100490.27;2282503;78;20922;-85
2022/02/28 04:17:07;;;;;;;27.60;14.60;;;;;;;-4.40;79.17;100488.56;2282617;78;20943;-84
2022/02/28 04:20:08;;;;;;;35.90;15.50;;;;;;;-4.46;79.01;100494.34;2281675;78;21048;-83
2022/02/28 04:23:09;;;;;;;34.10;15.37;;;;;;;-4.49;79.35;100489.47;2279883;78;21008;-85
2022/02/28 04:26:09;;;;;;;81.47;17.47;;;;;;;-4.51;79.56;100488.80;2280722;78;20993;-82
2022/02/28 04:29:10;;;;;;;120.53;20.20;;;;;;;-4.52;79.74;100494.27;2281347;78;20954;-84
2022/02/28 04:32:12;;;;;;;31.73;15.00;;;;;;;-4.51;79.85;100498.63;2281679;78;20958;-84
2022/02/28 04:35:14;;;;;;;31.87;15.90;;;;;;;-4.52;79.64;100493.38;2281337;78;21059;-85
2022/02/28 04:41:21;;;;;;;38.33;16.37;;;;;;;-4.56;79.96;100501.09;2261021;78;21365;-83
2022/02/28 04:44:23;;;;;;;33.97;15.73;;;;;;;-4.60;80.19;100488.81;2279670;78;20981;-83
2022/02/28 04:47:24;;;;;;;35.60;15.97;;;;;;;-4.60;80.61;100496.45;2279121;78;20946;-83
2022/02/28 04:50:24;;;;;;;56.97;17.30;;;;;;;-4.46;80.58;100504.53;2279892;78;21032;-83
2022/02/28 04:56:35;;;;;;;42.17;16.80;;;;;;;-4.49;80.09;100502.59;2249667;79;21031;-84
2022/02/28 04:59:36;;;;;;;34.27;16.37;;;;;;;-4.47;80.49;100500.19;2253647;78;21380;-83
2022/02/28 05:02:36;;;;;;;30.77;15.63;;;;;;;-4.46;80.28;100505.81;2281487;78;20903;-84
2022/02/28 05:05:37;;;;;;;50.67;16.53;;;;;;;-4.46;80.15;100504.16;2281719;78;20930;-83
2022/02/28 05:08:39;;;;;;;34.43;15.77;;;;;;;-4.43;80.17;100508.66;2281753;78;20993;-84
2022/02/28 05:11:41;;;;;;;39.37;15.87;;;;;;;-4.36;80.24;100506.84;2279968;78;21005;-83
2022/02/28 05:14:42;;;;;;;26.40;12.73;;;;;;;-4.25;80.45;100515.56;2281275;78;21937;-80
2022/02/28 05:24:47;;;;;;;29.70;13.53;;;;;;;-3.97;80.21;100516.16;2263318;78;20974;-82
2022/02/28 05:27:48;;;;;;;30.73;13.27;;;;;;;-3.87;80.16;100516.66;2280715;78;20923;-85
2022/02/28 05:30:49;;;;;;;42.20;16.87;;;;;;;-3.77;80.07;100522.25;2280657;78;20985;-84
2022/02/28 05:34:06;;;;;;;30.57;16.07;;;;;;;-3.70;79.93;100522.97;2277894;77;21060;-85
2022/02/28 05:37:08;;;;;;;29.13;16.23;;;;;;;-3.59;79.82;100527.42;2278415;78;21036;-85
2022/02/28 05:43:15;;;;;;;30.33;14.10;;;;;;;-3.50;79.40;100528.66;2259669;78;20938;-85
2022/02/28 05:49:18;;;;;;;25.77;13.83;;;;;;;-3.53;79.30;100541.14;2222652;80;20988;-83
2022/02/28 05:52:20;;;;;;;23.83;13.53;;;;;;;-3.61;79.14;100534.04;2221879;80;21050;-83
2022/02/28 05:55:21;;;;;;;121.23;19.23;;;;;;;-3.60;79.16;100538.77;2221822;80;20963;-80
2022/02/28 05:58:21;;;;;;;25.07;13.83;;;;;;;-3.61;79.07;100544.63;2221510;80;20937;-83
2022/02/28 06:01:22;;;;;;;34.83;15.50;;;;;;;-3.61;79.17;100546.80;2220684;80;21328;-84
2022/02/28 06:04:22;;;;;;;35.90;15.53;;;;;;;-2.01;92.66;100542.33;2220138;80;21442;-84
2022/02/28 06:07:23;;;;;;;87.00;37.33;;;;;;;-2.14;79.31;100542.39;2220916;80;21043;-85
2022/02/28 06:10:24;;;;;;;68.97;28.47;;;;;;;-2.53;77.88;100546.13;2221357;80;21014;-85
2022/02/28 06:13:24;;;;;;;51.80;25.20;;;;;;;-2.78;77.49;100549.37;2221605;80;20972;-84
2022/02/28 06:16:25;;;;;;;45.37;21.87;;;;;;;-2.98;77.58;100557.39;2220884;80;21774;-83
2022/02/28 06:19:26;;;;;;;31.67;15.03;;;;;;;-3.09;77.59;100550.41;2221166;80;21117;-85
2022/02/28 06:22:27;;;;;;;75.83;19.20;;;;;;;-3.12;77.50;100553.95;2221029;80;20987;-85
2022/02/28 06:25:27;;;;;;;30.83;15.60;;;;;;;-3.17;77.65;100559.02;2221293;80;20988;-85
2022/02/28 06:28:32;;;;;;;276.53;29.07;;;;;;;-3.17;77.65;100559.39;2221977;80;21008;-81
2022/02/28 06:31:30;;;;;;;35.33;15.60;;;;;;;-3.10;77.82;100564.31;2221951;80;21495;-84
2022/02/28 06:34:31;;;;;;;52.30;16.70;;;;;;;-2.98;77.59;100568.89;2216858;79;20994;-83
2022/02/28 06:37:32;;;;;;;30.97;16.30;;;;;;;-2.82;77.58;100567.36;2184392;81;20974;-81
2022/02/28 06:40:33;;;;;;;22.13;14.53;;;;;;;-2.70;77.36;100576.15;2228404;80;20996;-83
2022/02/28 06:43:33;;;;;;;31.80;17.70;;;;;;;-2.62;76.99;100570.07;2235098;79;21012;-83
2022/02/28 06:46:34;;;;;;;24.93;14.17;;;;;;;-2.54;77.01;100573.73;2234320;80;21074;-82
2022/02/28 06:49:34;;;;;;;31.67;17.10;;;;;;;-2.51;76.85;100567.24;2233373;80;21320;-83
2022/02/28 06:52:35;;;;;;;35.40;19.07;;;;;;;-2.47;76.66;100576.09;2232442;80;20980;-82
2022/02/28 06:55:35;;;;;;;37.40;17.70;;;;;;;-2.35;76.61;100582.30;2232348;79;20948;-83
2022/02/28 06:58:36;;;;;;;89.10;45.87;;;;;;;-2.22;76.56;100579.19;2232289;80;20983;-83
2022/02/28 07:01:36;;;;;;;75.40;31.80;;;;;;;-2.08;76.07;100582.20;2232392;80;20952;-82
2022/02/28 07:04:37;;;;;;;29.70;17.43;;;;;;;-1.78;76.52;100592.97;2232258;80;20952;-82
2022/02/28 07:07:38;;;;;;;34.00;18.17;;;;;;;-1.45;76.37;100591.20;2232070;80;21426;-81
2022/02/28 07:10:38;;;;;;;57.37;28.37;;;;;;;-1.19;75.28;100596.39;2232594;80;21360;-82
2022/02/28 07:13:39;;;;;;;38.40;21.10;;;;;;;-0.96;75.42;100593.73;2233836;80;20951;-82
2022/02/28 07:16:40;;;;;;;21.77;11.97;;;;;;;-0.75;75.34;100592.11;2234239;80;21063;-82
2022/02/28 07:19:40;;;;;;;25.83;13.67;;;;;;;-0.65;73.54;100590.82;2233745;79;21391;-81
2022/02/28 07:22:41;;;;;;;16.93;11.40;;;;;;;-0.57;73.83;100596.97;2233510;80;20952;-81
2022/02/28 07:25:42;;;;;;;18.40;12.17;;;;;;;-0.48;73.06;100591.33;2234220;80;20940;-83
2022/02/28 07:28:42;;;;;;;46.33;13.63;;;;;;;-0.39;72.44;100600.68;2233528;80;20971;-83
2022/02/28 07:31:43;;;;;;;15.83;11.30;;;;;;;-0.30;72.62;100597.08;2232678;79;21023;-82
2022/02/28 07:34:44;;;;;;;24.70;16.70;;;;;;;-0.26;71.89;100600.41;2237013;78;21928;-83
2022/02/28 07:37:44;;;;;;;79.17;13.17;;;;;;;-0.23;71.83;100605.78;2279063;78;21511;-83
2022/02/28 07:40:45;;;;;;;15.87;11.00;;;;;;;-0.10;71.41;100605.63;2281046;78;20976;-79
2022/02/28 07:43:45;;;;;;;70.17;16.07;;;;;;;-0.01;71.64;100611.52;2279762;78;21345;-82
2022/02/28 07:46:46;;;;;;;21.33;11.37;;;;;;;0.04;70.96;100607.17;2279057;78;21072;-81
2022/02/28 07:49:46;;;;;;;79.20;14.60;;;;;;;0.15;70.12;100614.07;2280460;78;20985;-81
2022/02/28 07:52:47;;;;;;;16.90;10.60;;;;;;;0.17;69.96;100618.56;2279576;78;21380;-81
2022/02/28 07:55:47;;;;;;;17.50;11.00;;;;;;;0.31;68.77;100613.25;2279159;78;20950;-80
2022/02/28 07:58:48;;;;;;;25.03;13.20;;;;;;;0.37;69.38;100615.41;2279627;78;20918;-81
2022/02/28 08:01:49;;;;;;;73.13;15.63;;;;;;;0.46;68.96;100613.56;2278647;78;20962;-82
2022/02/28 08:04:49;;;;;;;71.17;45.50;;;;;;;0.62;69.24;100611.05;2278476;78;20989;-81
2022/02/28 08:07:50;;;;;;;17.37;10.47;;;;;;;0.74;68.18;100613.69;2279242;78;20985;-81
2022/02/28 08:10:50;;;;;;;55.63;21.23;;;;;;;0.96;67.93;100617.58;2278934;78;21412;-81
2022/02/28 08:13:51;;;;;;;26.27;13.90;;;;;;;1.11;67.50;100620.05;2279077;78;21377;-80
2022/02/28 08:16:52;;;;;;;10.57;7.93;;;;;;;1.13;65.41;100615.91;2279197;78;21065;-80
2022/02/28 08:19:52;;;;;;;16.30;10.17;;;;;;;1.21;65.70;100621.26;2279444;78;20965;-79
2022/02/28 08:22:53;;;;;;;20.20;12.23;;;;;;;1.36;66.66;100624.11;2278517;78;20945;-80
2022/02/28 08:25:53;;;;;;;77.57;15.27;;;;;;;1.49;64.45;100620.39;2277864;78;20981;-80
2022/02/28 08:28:54;;;;;;;21.50;9.37;;;;;;;1.56;64.48;100628.19;2278749;78;20969;-80
2022/02/28 08:31:54;;;;;;;18.57;10.27;;;;;;;1.73;65.88;100621.34;2277894;78;21048;-81
2022/02/28 08:34:55;;;;;;;22.13;12.80;;;;;;;1.82;63.32;100637.90;2276804;77;20922;-80
2022/02/28 08:37:55;;;;;;;351.30;26.00;;;;;;;1.91;63.47;100635.62;2278654;78;21024;-80
2022/02/28 08:40:56;;;;;;;15.83;9.23;;;;;;;1.89;62.81;100637.18;2278749;78;20973;-81
2022/02/28 08:43:57;;;;;;;33.90;10.77;;;;;;;1.91;62.52;100640.77;2279824;78;20973;-81
2022/02/28 08:46:57;;;;;;;19.60;10.03;;;;;;;1.95;61.76;100650.91;2279570;78;21040;-80
2022/02/28 08:50:00;;;;;;;19.07;9.97;;;;;;;2.03;62.10;100639.49;2279385;78;20976;-81
2022/02/28 08:53:00;;;;;;;33.37;15.67;;;;;;;2.17;61.55;100643.08;2279251;77;21029;-81
2022/02/28 08:56:01;;;;;;;1272.77;89.20;;;;;;;2.21;60.72;100644.70;2280119;78;20929;-80
2022/02/28 08:59:01;;;;;;;15.33;7.30;;;;;;;2.31;61.19;100640.22;2279404;78;20999;-81
2022/02/28 09:02:02;;;;;;;14.03;7.10;;;;;;;2.43;58.83;100650.13;2279265;78;20946;-81
2022/02/28 09:05:03;;;;;;;485.17;32.80;;;;;;;2.34;57.60;100645.59;2279459;77;21361;-79
2022/02/28 09:08:04;;;;;;;18.10;8.53;;;;;;;2.44;59.40;100650.24;2278162;78;20942;-79
2022/02/28 09:11:04;;;;;;;13.87;9.00;;;;;;;2.56;57.36;100648.55;2278911;78;20981;-81
2022/02/28 09:14:05;;;;;;;25.87;11.37;;;;;;;2.66;58.26;100654.40;2280093;78;20976;-81
2022/02/28 09:17:06;;;;;;;11.33;6.30;;;;;;;2.79;58.38;100649.33;2278841;78;21409;-79
2022/02/28 09:20:07;;;;;;;19.43;8.73;;;;;;;2.90;56.38;100656.53;2279543;78;21449;-81
2022/02/28 09:23:08;;;;;;;68.60;9.87;;;;;;;2.80;55.72;100666.20;2278928;78;20946;-80
2022/02/28 09:26:09;;;;;;;8.73;6.17;;;;;;;2.65;55.79;100661.63;2278453;78;20949;-81
2022/02/28 09:29:09;;;;;;;10.73;6.40;;;;;;;2.68;55.51;100661.84;2278444;78;20965;-81
2022/02/28 09:32:10;;;;;;;10.97;6.67;;;;;;;2.84;54.18;100660.87;2279628;78;21372;-81
2022/02/28 09:35:11;;;;;;;15.07;8.40;;;;;;;2.93;52.95;100653.78;2279197;78;21369;-81
2022/02/28 09:38:11;;;;;;;68.53;9.83;;;;;;;2.96;50.90;100664.31;2286042;77;21059;-82
2022/02/28 09:41:12;;;;;;;9.03;5.30;;;;;;;2.68;51.12;100673.06;2288648;78;20960;-81
2022/02/28 09:44:14;;;;;;;13.00;7.30;;;;;;;2.75;50.11;100665.38;2288839;78;21434;-81
2022/02/28 09:47:15;;;;;;;8.80;4.73;;;;;;;2.90;49.94;100677.17;2288323;78;21094;-81
2022/02/28 09:50:15;;;;;;;9.50;6.27;;;;;;;2.98;48.12;100670.87;2289050;78;20999;-81
2022/02/28 09:53:16;;;;;;;12.50;4.93;;;;;;;3.25;48.22;100661.19;2289368;78;21019;-81
2022/02/28 09:56:20;;;;;;;12.23;6.33;;;;;;;3.28;49.08;100665.67;2290045;78;21015;-82
2022/02/28 09:59:19;;;;;;;18.03;10.83;;;;;;;3.47;47.83;100668.77;2289850;78;21023;-81
2022/02/28 10:02:19;;;;;;;42.50;10.77;;;;;;;3.44;46.94;100665.94;2289130;78;20959;-81
2022/02/28 10:05:20;;;;;;;12.10;8.70;;;;;;;3.51;46.34;100666.89;2288681;78;20967;-81
2022/02/28 10:08:23;;;;;;;26.17;4.70;;;;;;;3.48;47.86;100661.52;2288680;78;20971;-81
2022/02/28 10:11:24;;;;;;;50.47;6.10;;;;;;;3.51;45.85;100663.02;2288087;77;21047;-81
2022/02/28 10:17:27;;;;;;;15.27;4.97;;;;;;;3.99;45.43;100666.72;2264235;78;21034;-80
2022/02/28 10:20:27;;;;;;;14.60;5.73;;;;;;;4.25;44.28;100654.63;2287089;78;21003;-82
2022/02/28 10:23:28;;;;;;;341.53;20.27;;;;;;;4.38;44.37;100659.44;2287451;78;20979;-81
2022/02/28 10:26:28;;;;;;;23.37;4.93;;;;;;;4.67;45.44;100662.61;2288031;78;21009;-82
2022/02/28 10:29:29;;;;;;;5.67;3.67;;;;;;;4.74;43.36;100666.48;2288201;78;20979;-81
2022/02/28 10:32:30;;;;;;;6.27;4.93;;;;;;;4.99;44.43;100663.34;2288525;78;21014;-81
2022/02/28 10:38:49;;;;;;;7.47;4.27;;;;;;;5.09;42.46;100668.30;2280509;78;22048;-82
2022/02/28 10:41:50;;;;;;;9.50;3.90;;;;;;;4.58;41.56;100676.64;2278425;78;21020;-82
2022/02/28 10:44:51;;;;;;;6.93;4.10;;;;;;;4.53;43.34;100678.03;2278461;77;21318;-81
2022/02/28 10:47:54;;;;;;;6.03;3.10;;;;;;;4.62;43.50;100676.04;2278364;77;21076;-81
2022/02/28 10:50:55;;;;;;;112.30;8.13;;;;;;;4.62;38.35;100682.51;2278497;77;20997;-82
2022/02/28 10:53:56;;;;;;;25.40;5.87;;;;;;;4.63;41.77;100671.36;2277948;78;21381;-82
2022/02/28 10:56:56;;;;;;;7.67;3.77;;;;;;;4.68;43.15;100668.67;2278175;78;20974;-82
2022/02/28 10:59:57;;;;;;;8.77;4.40;;;;;;;4.93;43.41;100665.55;2278193;78;20973;-82
2022/02/28 11:02:57;;;;;;;7.90;4.40;;;;;;;5.13;41.82;100665.50;2278670;78;20950;-82
2022/02/28 11:05:58;;;;;;;4.80;3.50;;;;;;;5.22;42.13;100663.91;2278861;77;20976;-81
2022/02/28 11:08:59;;;;;;;6.90;3.40;;;;;;;5.20;41.29;100679.72;2278389;78;21439;-82
2022/02/28 11:12:03;;;;;;;342.87;28.50;;;;;;;4.95;40.26;100684.66;2278983;78;21919;-82
2022/02/28 11:15:02;;;;;;;27.00;4.60;;;;;;;4.50;38.67;100672.66;2279084;78;21008;-82
2022/02/28 11:18:02;;;;;;;23.53;4.47;;;;;;;4.04;39.32;100682.53;2278632;78;21017;-83
2022/02/28 11:21:03;;;;;;;6.40;3.50;;;;;;;3.89;40.39;100678.92;2278197;78;21349;-82
2022/02/28 11:24:04;;;;;;;9.40;3.43;;;;;;;4.11;41.21;100671.81;2278463;78;20985;-81
2022/02/28 11:27:05;;;;;;;10.27;7.47;;;;;;;4.41;39.75;100670.38;2278341;77;20949;-82
2022/02/28 11:30:05;;;;;;;8.93;4.10;;;;;;;4.55;39.23;100660.92;2278580;78;20958;-79
2022/02/28 11:33:06;;;;;;;47.80;5.87;;;;;;;4.67;39.34;100665.19;2278627;77;20985;-82
2022/02/28 11:36:06;;;;;;;9.47;3.67;;;;;;;4.68;40.56;100666.98;2278820;78;21024;-79
2022/02/28 11:39:07;;;;;;;5.47;3.67;;;;;;;4.75;40.48;100668.27;2254745;78;20991;-83
2022/02/28 11:42:08;;;;;;;5.70;3.30;;;;;;;4.42;39.80;100673.06;2245617;79;20929;-81
2022/02/28 11:45:08;;;;;;;4.57;3.10;;;;;;;4.16;40.43;100685.94;2246580;79;21003;-83
2022/02/28 11:48:12;;;;;;;4.77;3.13;;;;;;;3.92;40.94;100679.13;2246939;79;21123;-79
2022/02/28 11:51:12;;;;;;;6.67;4.10;;;;;;;3.90;41.11;100679.42;2246586;79;21386;-79
2022/02/28 11:54:13;;;;;;;6.13;3.43;;;;;;;4.07;41.81;100668.13;2246278;79;20947;-79
2022/02/28 11:57:13;;;;;;;6.57;3.40;;;;;;;4.26;41.62;100672.83;2246279;78;20940;-79
2022/02/28 12:00:14;;;;;;;13.37;4.53;;;;;;;4.51;41.00;100669.28;2246695;79;21003;-81
2022/02/28 12:03:14;;;;;;;25.03;4.50;;;;;;;4.74;41.89;100664.78;2247319;79;21517;-79
2022/02/28 12:06:15;;;;;;;6.80;3.50;;;;;;;4.96;41.09;100668.33;2247005;79;21003;-82
2022/02/28 12:09:16;;;;;;;36.43;4.73;;;;;;;4.97;39.86;100679.58;2246609;79;20963;-82
2022/02/28 12:12:22;;;;;;;7.53;3.27;;;;;;;4.75;40.59;100686.38;2245603;78;21015;-83
2022/02/28 12:15:23;;;;;;;164.43;10.70;;;;;;;4.61;41.31;100683.30;2246322;79;21019;-83
2022/02/28 12:18:23;;;;;;;14.17;3.87;;;;;;;4.58;42.48;100685.69;2245619;79;21074;-81
2022/02/28 12:21:24;;;;;;;267.00;16.40;;;;;;;4.48;41.84;100677.73;2245635;78;21022;-82
2022/02/28 12:24:24;;;;;;;5.77;3.40;;;;;;;4.54;42.02;100684.59;2247359;79;21025;-84
2022/02/28 12:30:27;;;;;;;9.80;3.67;;;;;;;4.67;42.65;100694.94;2216210;79;21062;-83
2022/02/28 12:33:28;;;;;;;76.40;5.60;;;;;;;4.86;42.02;100695.72;2246720;79;20971;-85
2022/02/28 12:36:29;;;;;;;6.07;3.33;;;;;;;4.75;42.16;100697.63;2246134;78;20955;-82
2022/02/28 12:39:30;;;;;;;20.40;3.70;;;;;;;4.35;42.01;100700.61;2279716;77;21023;-82
2022/02/28 12:42:30;;;;;;;9.80;3.27;;;;;;;4.35;42.01;100700.61;2289728;78;21010;-84
2022/02/28 12:45:33;;;;;;;6.00;3.40;;;;;;;4.37;43.00;100706.77;2267067;78;20992;-82
2022/02/28 12:48:33;;;;;;;7.63;3.43;;;;;;;4.63;43.33;100708.47;2290390;78;20999;-83
2022/02/28 12:51:36;;;;;;;14.87;3.77;;;;;;;4.84;41.27;100700.30;2288459;78;20991;-82
2022/02/28 12:54:38;;;;;;;10.08;4.05;;;;;;;4.73;42.18;100708.27;2264591;78;21023;-80
2022/02/28 12:57:39;;;;;;;7.80;3.20;;;;;;;4.75;42.03;100700.61;2288404;78;21343;-80
2022/02/28 13:00:39;;;;;;;12.97;3.30;;;;;;;4.71;42.62;100698.62;2288385;78;21348;-80
2022/02/28 13:03:40;;;;;;;8.13;3.70;;;;;;;4.51;42.55;100702.50;2287957;78;21031;-83
2022/02/28 13:06:40;;;;;;;10.87;4.50;;;;;;;4.35;43.10;100704.48;2287792;78;21030;-82
2022/02/28 13:09:41;;;;;;;141.63;11.13;;;;;;;4.27;44.41;100700.47;2288669;78;20944;-79
2022/02/28 13:12:42;;;;;;;6.77;3.43;;;;;;;4.28;45.05;100706.13;2287954;78;21077;-82
2022/02/28 13:15:42;;;;;;;30.97;4.97;;;;;;;4.34;44.45;100708.27;2287920;78;20952;-82
2022/02/28 13:18:43;;;;;;;5.77;2.83;;;;;;;4.32;44.82;100695.20;2287290;78;20984;-81
2022/02/28 13:21:43;;;;;;;4.37;2.77;;;;;;;4.28;43.99;100700.06;2286989;78;20971;-81
2022/02/28 13:24:44;;;;;;;6.60;3.83;;;;;;;4.21;44.61;100700.06;2287676;78;21394;-81
2022/02/28 13:27:45;;;;;;;5.87;3.47;;;;;;;4.24;45.03;100700.27;2287409;78;21399;-81
2022/02/28 13:30:45;;;;;;;9.10;3.20;;;;;;;4.48;44.60;100698.42;2287455;78;21022;-80
2022/02/28 13:33:46;;;;;;;19.10;5.13;;;;;;;4.42;44.86;100694.14;2287500;77;20991;-82
2022/02/28 13:36:46;;;;;;;125.47;8.33;;;;;;;4.33;44.54;100705.14;2288208;78;21647;-81
2022/02/28 13:39:47;;;;;;;6.83;3.40;;;;;;;4.30;45.28;100695.89;2279476;78;21460;-81
2022/02/28 13:42:48;;;;;;;4.17;2.80;;;;;;;4.28;45.28;100698.37;2278097;78;21032;-82
2022/02/28 13:45:49;;;;;;;5.90;3.20;;;;;;;4.37;44.84;100709.36;2278430;78;20945;-82
2022/02/28 13:48:50;;;;;;;12.50;4.93;;;;;;;4.43;44.93;100707.17;2278487;78;21068;-82
2022/02/28 13:51:50;;;;;;;12.00;3.60;;;;;;;4.50;43.68;100708.47;2278685;78;20986;-83
2022/02/28 13:54:51;;;;;;;9.50;3.33;;;;;;;4.52;43.94;100703.40;2279573;78;21000;-82
2022/02/28 13:57:51;;;;;;;9.27;3.93;;;;;;;4.65;44.61;100709.47;2279505;78;20954;-83
2022/02/28 14:00:52;;;;;;;6.00;3.90;;;;;;;4.72;43.98;100705.58;2278940;78;20980;-84
2022/02/28 14:03:52;;;;;;;8.53;3.77;;;;;;;4.56;44.56;100713.15;2279479;78;20980;-83
2022/02/28 14:06:53;;;;;;;7.83;3.80;;;;;;;4.31;45.12;100719.27;2279039;78;20950;-81
2022/02/28 14:09:54;;;;;;;7.07;3.90;;;;;;;4.10;45.78;100721.71;2279342;78;20942;-84
2022/02/28 14:12:54;;;;;;;404.77;24.33;;;;;;;3.95;45.75;100722.87;2279871;78;21423;-83
2022/02/28 14:15:55;;;;;;;8.70;3.70;;;;;;;3.94;46.46;100727.53;2278781;78;21917;-84
2022/02/28 14:18:55;;;;;;;8.33;3.60;;;;;;;4.05;46.13;100726.56;2278866;78;20990;-83
2022/02/28 14:21:56;;;;;;;8.67;3.83;;;;;;;3.99;46.21;100732.61;2278270;78;20946;-85
2022/02/28 14:24:57;;;;;;;137.67;10.77;;;;;;;3.95;46.86;100738.37;2278682;78;20960;-83
2022/02/28 14:27:57;;;;;;;19.83;6.30;;;;;;;3.96;46.97;100732.80;2278490;78;20965;-83
2022/02/28 14:30:58;;;;;;;5.97;3.80;;;;;;;3.93;47.25;100735.18;2279236;77;20981;-85
2022/02/28 14:33:58;;;;;;;12.33;5.47;;;;;;;3.79;47.54;100739.02;2279480;78;20950;-84
2022/02/28 14:36:59;;;;;;;8.73;4.10;;;;;;;3.83;47.47;100737.14;2278804;78;21286;-81
2022/02/28 14:40:00;;;;;;;9.53;3.83;;;;;;;3.87;47.40;100741.22;2286718;77;21054;-83
2022/02/28 14:43:01;;;;;;;5.43;3.60;;;;;;;3.79;46.69;100739.41;2288734;78;20928;-83
2022/02/28 14:46:02;;;;;;;15.70;10.93;;;;;;;3.74;47.61;100742.97;2289033;78;21015;-82
2022/02/28 14:49:02;;;;;;;7.67;4.03;;;;;;;3.65;46.98;100741.04;2288997;78;21030;-83
2022/02/28 14:52:03;;;;;;;7.93;3.90;;;;;;;3.44;47.54;100739.13;2288563;78;20999;-83